createdAt,value
2017-12-28T00:02:16.969Z,3.40
2017-12-28T00:04:45.299Z,3.40
2017-12-28T00:07:12.952Z,3.40
2017-12-28T00:09:40.513Z,3.40
2017-12-28T00:12:08.036Z,3.30
2017-12-28T00:14:35.589Z,3.30
2017-12-28T00:17:03.866Z,3.30
2017-12-28T00:19:32.214Z,3.30
2017-12-28T00:21:59.736Z,3.30
2017-12-28T00:24:27.288Z,3.30
2017-12-28T00:26:55.076Z,3.30
2017-12-28T00:29:23.592Z,3.30
2017-12-28T00:31:51.159Z,3.40
2017-12-28T00:34:18.765Z,3.40
2017-12-28T00:36:47.251Z,3.30
2017-12-28T00:39:14.906Z,3.30
2017-12-28T00:41:42.441Z,3.30
2017-12-28T00:44:10.903Z,3.30
2017-12-28T00:46:38.460Z,3.30
2017-12-28T00:49:06.767Z,3.30
2017-12-28T00:51:35.069Z,3.30
2017-12-28T00:54:02.589Z,3.30
2017-12-28T00:56:30.899Z,3.30
2017-12-28T00:58:58.412Z,3.20
2017-12-28T01:01:25.928Z,3.20
2017-12-28T01:03:53.468Z,3.20
2017-12-28T01:06:21.020Z,3.20
2017-12-28T01:08:48.609Z,3.30
2017-12-28T01:11:16.311Z,3.30
2017-12-28T01:13:43.880Z,3.20
2017-12-28T01:16:12.212Z,3.20
2017-12-28T01:18:39.772Z,3.20
2017-12-28T01:21:07.328Z,3.10
2017-12-28T01:23:34.864Z,3.10
2017-12-28T01:26:02.389Z,3.10
2017-12-28T01:28:29.933Z,3.10
2017-12-28T01:30:57.452Z,3.10
2017-12-28T01:33:25.044Z,3.10
2017-12-28T01:35:53.628Z,3.10
2017-12-28T01:38:22.011Z,3.10
2017-12-28T01:40:49.760Z,3.10
2017-12-28T01:43:17.522Z,3.10
2017-12-28T01:45:45.270Z,3.10
2017-12-28T01:48:13.650Z,3.00
2017-12-28T01:50:41.174Z,3.00
2017-12-28T01:53:08.703Z,2.90
2017-12-28T01:55:36.264Z,2.90
2017-12-28T01:58:03.808Z,2.90
2017-12-28T02:00:31.329Z,2.80
2017-12-28T02:02:59.600Z,2.60
2017-12-28T02:05:27.896Z,2.60
2017-12-28T02:07:55.476Z,2.60
2017-12-28T02:10:23.049Z,2.50
2017-12-28T02:12:50.690Z,2.50
2017-12-28T02:15:18.240Z,2.50
2017-12-28T02:17:45.800Z,2.40
2017-12-28T02:20:13.313Z,2.50
2017-12-28T02:22:40.904Z,2.40
2017-12-28T02:25:08.476Z,2.30
2017-12-28T02:27:35.981Z,2.40
2017-12-28T02:30:03.523Z,2.30
2017-12-28T02:32:31.041Z,2.20
2017-12-28T02:34:59.345Z,2.10
2017-12-28T02:37:27.016Z,2.10
2017-12-28T02:39:54.607Z,2.10
2017-12-28T02:42:22.183Z,2.00
2017-12-28T02:44:50.694Z,1.90
2017-12-28T02:47:18.969Z,1.90
2017-12-28T02:49:46.561Z,2.00
2017-12-28T02:52:14.108Z,2.00
2017-12-28T02:54:41.667Z,1.90
2017-12-28T02:57:09.259Z,1.90
2017-12-28T02:59:36.806Z,1.90
2017-12-28T03:02:04.321Z,1.90
2017-12-28T03:04:32.604Z,2.00
2017-12-28T03:07:00.138Z,2.00
2017-12-28T03:09:27.731Z,2.10
2017-12-28T03:11:55.366Z,2.10
2017-12-28T03:14:22.888Z,2.20
2017-12-28T03:16:50.508Z,2.10
2017-12-28T03:19:18.282Z,2.10
2017-12-28T03:21:45.854Z,2.30
2017-12-28T03:24:13.414Z,2.30
2017-12-28T03:26:41.036Z,2.30
2017-12-28T03:29:09.356Z,2.50
2017-12-28T03:31:36.920Z,2.50
2017-12-28T03:34:04.433Z,2.50
2017-12-28T03:36:32.766Z,2.60
2017-12-28T03:39:00.290Z,2.60
2017-12-28T03:41:27.812Z,2.70
2017-12-28T03:43:55.352Z,2.70
2017-12-28T03:46:22.890Z,2.70
2017-12-28T03:48:50.468Z,2.70
2017-12-28T03:51:18.345Z,2.70
2017-12-28T03:53:45.947Z,2.70
2017-12-28T03:56:14.245Z,2.70
2017-12-28T03:58:41.833Z,2.70
2017-12-28T04:01:09.392Z,2.60
2017-12-28T04:03:37.727Z,2.60
2017-12-28T04:06:05.259Z,2.60
2017-12-28T04:08:33.576Z,2.60
2017-12-28T04:11:01.104Z,2.60
2017-12-28T04:13:29.424Z,2.60
2017-12-28T04:15:56.946Z,2.60
2017-12-28T04:18:25.268Z,2.60
2017-12-28T04:20:52.837Z,2.60
2017-12-28T04:23:20.384Z,2.70
2017-12-28T04:25:47.994Z,2.70
2017-12-28T04:28:15.529Z,2.70
2017-12-28T04:30:43.087Z,2.70
2017-12-28T04:33:10.696Z,2.70
2017-12-28T04:35:38.283Z,2.70
2017-12-28T04:38:05.832Z,2.70
2017-12-28T04:40:33.345Z,2.60
2017-12-28T04:43:00.860Z,2.60
2017-12-28T04:45:28.399Z,2.50
2017-12-28T04:47:56.680Z,2.60
2017-12-28T04:50:24.251Z,2.50
2017-12-28T04:52:51.813Z,2.60
2017-12-28T04:55:19.432Z,2.50
2017-12-28T04:57:47.260Z,2.50
2017-12-28T05:00:15.630Z,2.50
2017-12-28T05:02:43.187Z,2.60
2017-12-28T05:05:10.918Z,2.60
2017-12-28T05:07:38.444Z,2.60
2017-12-28T05:10:05.981Z,2.60
2017-12-28T05:12:33.492Z,2.60
2017-12-28T05:15:01.793Z,2.60
2017-12-28T05:17:29.326Z,2.60
2017-12-28T05:19:57.643Z,2.60
2017-12-28T05:22:25.207Z,2.60
2017-12-28T05:24:52.775Z,2.60
2017-12-28T05:27:20.354Z,2.50
2017-12-28T05:29:47.955Z,2.40
2017-12-28T05:32:16.395Z,2.20
2017-12-28T05:34:44.131Z,2.20
2017-12-28T05:37:11.665Z,2.20
2017-12-28T05:39:39.994Z,2.20
2017-12-28T05:42:07.503Z,2.10
2017-12-28T05:44:35.780Z,2.20
2017-12-28T05:47:04.276Z,2.20
2017-12-28T05:49:31.803Z,2.20
2017-12-28T05:52:00.118Z,2.20
2017-12-28T05:54:27.660Z,2.20
2017-12-28T05:56:55.937Z,2.20
2017-12-28T05:59:23.538Z,2.20
2017-12-28T06:01:51.283Z,2.10
2017-12-28T06:04:18.914Z,1.90
2017-12-28T06:06:47.503Z,1.90
2017-12-28T06:09:15.100Z,1.90
2017-12-28T06:11:42.639Z,1.80
2017-12-28T06:14:10.148Z,1.70
2017-12-28T06:16:37.716Z,1.70
2017-12-28T06:19:06.025Z,1.40
2017-12-28T06:21:33.552Z,1.40
2017-12-28T06:24:01.270Z,1.30
2017-12-28T06:26:28.856Z,1.10
2017-12-28T06:28:56.592Z,1.10
2017-12-28T06:31:24.149Z,1.00
2017-12-28T06:33:51.813Z,1.00
2017-12-28T06:36:19.400Z,0.90
2017-12-28T06:38:47.082Z,0.90
2017-12-28T06:41:15.423Z,0.80
2017-12-28T06:43:43.720Z,0.80
2017-12-28T06:46:11.273Z,0.80
2017-12-28T06:48:38.841Z,0.80
2017-12-28T06:51:07.136Z,0.80
2017-12-28T06:53:35.448Z,0.80
2017-12-28T06:56:03.720Z,0.90
2017-12-28T06:58:32.010Z,0.80
2017-12-28T07:00:59.687Z,0.80
2017-12-28T07:03:27.201Z,0.80
2017-12-28T07:05:55.115Z,0.80
2017-12-28T07:08:22.807Z,0.90
2017-12-28T07:10:50.546Z,0.90
2017-12-28T07:13:18.638Z,0.90
2017-12-28T07:15:46.583Z,1.00
2017-12-28T07:18:14.171Z,1.00
2017-12-28T07:20:42.283Z,1.00
2017-12-28T07:23:09.894Z,1.10
2017-12-28T07:25:37.537Z,1.10
2017-12-28T07:28:05.079Z,1.10
2017-12-28T07:30:32.665Z,1.10
2017-12-28T07:33:00.196Z,1.10
2017-12-28T07:35:27.725Z,1.10
2017-12-28T07:37:55.428Z,1.10
2017-12-28T07:40:22.976Z,1.20
2017-12-28T07:42:50.756Z,1.20
2017-12-28T07:45:18.531Z,1.20
2017-12-28T07:47:46.297Z,1.20
2017-12-28T07:50:13.832Z,1.20
2017-12-28T07:52:41.376Z,1.30
2017-12-28T07:55:09.855Z,1.30
2017-12-28T07:57:37.373Z,1.20
2017-12-28T08:00:04.975Z,1.30
2017-12-28T08:02:33.308Z,1.40
2017-12-28T08:05:00.849Z,1.40
2017-12-28T08:07:28.485Z,1.50
2017-12-28T08:09:56.031Z,1.50
2017-12-28T08:12:23.842Z,1.50
2017-12-28T08:14:51.410Z,1.50
2017-12-28T08:17:18.957Z,1.50
2017-12-28T08:19:46.730Z,1.50
2017-12-28T08:22:14.271Z,1.60
2017-12-28T08:24:41.960Z,1.60
2017-12-28T08:27:09.562Z,1.70
2017-12-28T08:29:37.096Z,1.80
2017-12-28T08:32:04.636Z,1.80
2017-12-28T08:34:32.154Z,1.90
2017-12-28T08:37:00.444Z,1.90
2017-12-28T08:39:28.804Z,2.00
2017-12-28T08:41:56.316Z,2.00
2017-12-28T08:44:24.024Z,2.00
2017-12-28T08:46:51.550Z,2.00
2017-12-28T08:49:19.308Z,2.10
2017-12-28T08:51:46.877Z,2.20
2017-12-28T08:54:14.473Z,2.30
2017-12-28T08:56:42.784Z,2.50
2017-12-28T08:59:10.316Z,2.40
2017-12-28T09:01:38.688Z,2.60
2017-12-28T09:04:07.017Z,2.70
2017-12-28T09:06:34.569Z,2.70
2017-12-28T09:09:02.080Z,2.80
2017-12-28T09:11:29.598Z,2.90
2017-12-28T09:13:57.133Z,3.00
2017-12-28T09:16:24.648Z,3.00
2017-12-28T09:18:52.238Z,3.20
2017-12-28T09:21:20.656Z,3.20
2017-12-28T09:23:48.239Z,3.20
2017-12-28T09:26:15.966Z,3.20
2017-12-28T09:28:43.507Z,3.20
2017-12-28T09:31:11.824Z,3.10
2017-12-28T09:33:39.380Z,3.10
2017-12-28T09:36:06.905Z,3.00
2017-12-28T09:38:35.197Z,3.10
2017-12-28T09:41:02.768Z,3.00
2017-12-28T09:43:30.293Z,3.10
2017-12-28T09:45:58.640Z,2.90
2017-12-28T09:48:26.181Z,2.90
2017-12-28T09:50:53.776Z,2.80
2017-12-28T09:53:22.123Z,2.60
2017-12-28T09:55:49.641Z,2.60
2017-12-28T09:58:17.410Z,2.50
2017-12-28T10:00:44.991Z,2.50
2017-12-28T10:03:13.392Z,2.60
2017-12-28T10:05:40.958Z,2.60
2017-12-28T10:08:08.524Z,2.60
2017-12-28T10:10:36.061Z,2.70
2017-12-28T10:13:03.579Z,2.80
2017-12-28T10:15:31.952Z,3.20
2017-12-28T10:18:00.267Z,3.30
2017-12-28T10:20:27.810Z,3.30
2017-12-28T10:22:55.393Z,3.30
2017-12-28T10:25:24.011Z,3.30
2017-12-28T10:27:51.574Z,3.40
2017-12-28T10:30:19.116Z,3.40
2017-12-28T10:32:46.700Z,3.40
2017-12-28T10:35:14.224Z,3.30
2017-12-28T10:37:41.750Z,3.30
2017-12-28T10:40:09.315Z,3.40
2017-12-28T10:42:36.857Z,3.20
2017-12-28T10:45:05.150Z,3.40
2017-12-28T10:47:32.727Z,3.40
2017-12-28T10:50:00.264Z,3.50
2017-12-28T10:52:27.805Z,3.50
2017-12-28T10:54:56.123Z,3.50
2017-12-28T10:57:23.679Z,3.50
2017-12-28T10:59:51.217Z,3.40
2017-12-28T11:02:19.540Z,3.40
2017-12-28T11:04:47.069Z,3.40
2017-12-28T11:07:14.844Z,3.30
2017-12-28T11:09:42.369Z,3.20
2017-12-28T11:12:10.653Z,3.10
2017-12-28T11:14:38.959Z,3.10
2017-12-28T11:17:06.473Z,3.00
2017-12-28T11:19:34.012Z,3.00
2017-12-28T11:22:01.530Z,3.10
2017-12-28T11:24:29.068Z,3.20
2017-12-28T11:26:57.371Z,3.30
2017-12-28T11:29:25.104Z,3.30
2017-12-28T11:31:53.519Z,3.50
2017-12-28T11:34:21.982Z,3.30
2017-12-28T11:36:49.589Z,3.30
2017-12-28T11:39:17.182Z,3.20
2017-12-28T11:41:46.084Z,2.90
2017-12-28T11:44:13.650Z,2.90
2017-12-28T11:46:41.998Z,2.60
2017-12-28T11:49:11.049Z,2.50
2017-12-28T11:51:43.625Z,2.50
2017-12-28T11:54:12.935Z,2.50
2017-12-28T11:56:40.444Z,2.60
2017-12-28T11:59:13.632Z,2.70
2017-12-28T12:01:46.839Z,2.80
2017-12-28T12:04:15.906Z,2.90
2017-12-28T12:06:50.118Z,3.10
2017-12-28T12:09:17.724Z,3.10
2017-12-28T12:11:45.399Z,3.00
2017-12-28T12:14:12.965Z,2.90
2017-12-28T12:16:40.504Z,3.00
2017-12-28T12:19:08.059Z,3.10
2017-12-28T12:21:35.582Z,3.20
2017-12-28T12:24:03.219Z,3.00
2017-12-28T12:26:30.756Z,2.90
2017-12-28T12:28:58.330Z,2.90
2017-12-28T12:31:25.908Z,2.90
2017-12-28T12:33:53.649Z,3.10
2017-12-28T12:36:21.274Z,3.00
2017-12-28T12:38:48.856Z,3.10
2017-12-28T12:41:16.859Z,3.20
2017-12-28T12:43:44.419Z,3.00
2017-12-28T12:46:11.940Z,3.30
2017-12-28T12:48:39.469Z,3.20
2017-12-28T12:51:06.989Z,3.10
2017-12-28T12:53:34.515Z,3.10
2017-12-28T12:56:02.028Z,3.20
2017-12-28T12:58:29.601Z,3.30
2017-12-28T13:00:57.932Z,3.40
2017-12-28T13:03:25.520Z,3.40
2017-12-28T13:05:53.088Z,3.40
2017-12-28T13:08:21.539Z,3.40
2017-12-28T13:10:49.271Z,3.40
2017-12-28T13:13:17.029Z,3.20
2017-12-28T13:15:44.676Z,3.10
2017-12-28T13:18:12.212Z,3.00
2017-12-28T13:20:39.761Z,2.90
2017-12-28T13:23:07.304Z,2.90
2017-12-28T13:25:35.092Z,2.90
2017-12-28T13:28:02.645Z,3.00
2017-12-28T13:30:30.165Z,3.00
2017-12-28T13:32:59.170Z,2.90
2017-12-28T13:35:26.696Z,2.90
2017-12-28T13:37:54.223Z,2.90
2017-12-28T13:40:21.965Z,2.80
2017-12-28T13:42:49.524Z,2.70
2017-12-28T13:45:17.097Z,2.70
2017-12-28T13:47:44.748Z,2.80
2017-12-28T13:50:12.300Z,2.80
2017-12-28T13:52:39.908Z,2.90
2017-12-28T13:55:07.434Z,3.00
2017-12-28T13:57:35.018Z,3.10
2017-12-28T14:00:02.553Z,3.20
2017-12-28T14:02:30.232Z,3.10
2017-12-28T14:04:57.978Z,3.10
2017-12-28T14:07:25.629Z,3.10
2017-12-28T14:09:53.179Z,3.00
2017-12-28T14:12:20.710Z,2.90
2017-12-28T14:14:48.289Z,2.90
2017-12-28T14:17:15.898Z,2.90
2017-12-28T14:19:44.378Z,2.90
2017-12-28T14:22:12.636Z,2.90
2017-12-28T14:24:40.212Z,2.80
2017-12-28T14:27:07.755Z,2.60
2017-12-28T14:29:35.296Z,2.50
2017-12-28T14:32:02.867Z,2.50
2017-12-28T14:34:30.389Z,2.60
2017-12-28T14:36:57.925Z,2.60
2017-12-28T14:39:25.498Z,2.70
2017-12-28T14:41:53.112Z,2.70
2017-12-28T14:44:20.646Z,2.80
2017-12-28T14:46:49.057Z,2.60
2017-12-28T14:49:16.922Z,2.60
2017-12-28T14:51:44.458Z,2.50
2017-12-28T14:54:12.008Z,2.50
2017-12-28T14:56:40.421Z,2.50
2017-12-28T14:59:07.971Z,2.50
2017-12-28T15:01:35.492Z,2.50
2017-12-28T15:04:03.347Z,2.50
2017-12-28T15:06:31.676Z,2.60
2017-12-28T15:08:59.267Z,2.60
2017-12-28T15:11:26.801Z,2.50
2017-12-28T15:13:54.391Z,2.50
2017-12-28T15:16:21.987Z,2.50
2017-12-28T15:18:50.292Z,2.40
2017-12-28T15:21:17.836Z,2.30
2017-12-28T15:23:45.461Z,2.40
2017-12-28T15:26:13.607Z,2.30
2017-12-28T15:28:42.052Z,1.80
2017-12-28T15:31:10.351Z,1.70
2017-12-28T15:33:37.904Z,1.70
2017-12-28T15:36:05.452Z,1.70
2017-12-28T15:38:34.716Z,1.50
2017-12-28T15:41:02.252Z,1.50
2017-12-28T15:43:29.768Z,1.50
2017-12-28T15:45:58.078Z,1.50
2017-12-28T15:48:25.735Z,1.40
2017-12-28T15:50:54.228Z,1.20
2017-12-28T15:53:21.808Z,1.20
2017-12-28T15:55:49.496Z,1.20
2017-12-28T15:58:18.128Z,1.00
2017-12-28T16:00:45.881Z,1.00
2017-12-28T16:03:13.429Z,1.00
2017-12-28T16:05:40.957Z,1.00
2017-12-28T16:08:08.571Z,1.10
2017-12-28T16:10:36.088Z,1.20
2017-12-28T16:13:04.380Z,1.60
2017-12-28T16:15:32.675Z,1.70
2017-12-28T16:18:00.240Z,1.70
2017-12-28T16:20:27.782Z,1.60
2017-12-28T16:22:55.340Z,1.40
2017-12-28T16:25:23.078Z,1.40
2017-12-28T16:27:50.638Z,1.40
2017-12-28T16:30:18.247Z,1.60
2017-12-28T16:32:45.891Z,1.70
2017-12-28T16:35:13.584Z,1.50
2017-12-28T16:37:41.143Z,1.40
2017-12-28T16:40:08.722Z,1.40
2017-12-28T16:42:36.272Z,1.30
2017-12-28T16:45:03.795Z,1.40
2017-12-28T16:47:31.317Z,1.50
2017-12-28T16:49:58.952Z,1.40
2017-12-28T16:52:26.599Z,1.40
2017-12-28T16:54:54.242Z,1.50
2017-12-28T16:57:21.829Z,1.70
2017-12-28T16:59:49.409Z,1.80
2017-12-28T17:02:16.997Z,2.00
2017-12-28T17:04:45.336Z,2.20
2017-12-28T17:07:12.865Z,2.10
2017-12-28T17:09:40.389Z,2.10
2017-12-28T17:12:07.926Z,2.00
2017-12-28T17:14:35.559Z,1.90
2017-12-28T17:17:03.146Z,1.80
2017-12-28T17:19:30.689Z,1.90
2017-12-28T17:21:58.224Z,2.10
2017-12-28T17:24:25.788Z,2.20
2017-12-28T17:26:53.479Z,2.10
2017-12-28T17:29:21.137Z,2.10
2017-12-28T17:31:48.746Z,2.10
2017-12-28T17:34:17.080Z,2.20
2017-12-28T17:36:44.656Z,2.20
2017-12-28T17:39:12.236Z,2.20
2017-12-28T17:41:39.785Z,2.30
2017-12-28T17:44:07.338Z,2.30
2017-12-28T17:46:34.890Z,2.40
2017-12-28T17:49:02.629Z,2.40
2017-12-28T17:51:32.161Z,2.20
2017-12-28T17:53:59.705Z,2.20
2017-12-28T17:56:27.237Z,2.00
2017-12-28T17:58:55.608Z,1.90
2017-12-28T18:01:23.910Z,1.80
2017-12-28T18:03:51.456Z,1.80
2017-12-28T18:06:19.128Z,1.80
2017-12-28T18:08:46.682Z,1.80
2017-12-28T18:11:14.214Z,1.90
2017-12-28T18:13:42.520Z,1.90
2017-12-28T18:16:10.102Z,1.90
2017-12-28T18:18:37.659Z,2.00
2017-12-28T18:21:05.193Z,2.20
2017-12-28T18:23:32.713Z,2.20
2017-12-28T18:26:00.277Z,2.30
2017-12-28T18:28:27.822Z,2.30
2017-12-28T18:30:55.376Z,2.20
2017-12-28T18:33:23.042Z,2.30
2017-12-28T18:35:50.594Z,2.40
2017-12-28T18:38:18.207Z,2.30
2017-12-28T18:40:45.944Z,2.30
2017-12-28T18:43:13.462Z,2.20
2017-12-28T18:45:41.006Z,2.00
2017-12-28T18:48:08.530Z,1.90
2017-12-28T18:50:36.880Z,1.90
2017-12-28T18:53:04.415Z,1.90
2017-12-28T18:55:31.935Z,2.00
2017-12-28T18:58:00.394Z,2.20
2017-12-28T19:00:27.933Z,2.20
2017-12-28T19:02:55.542Z,2.10
2017-12-28T19:05:23.953Z,2.00
2017-12-28T19:07:52.468Z,1.90
2017-12-28T19:10:20.301Z,2.00
2017-12-28T19:12:48.064Z,2.00
2017-12-28T19:15:15.678Z,2.10
2017-12-28T19:17:43.263Z,2.20
2017-12-28T19:20:10.951Z,2.20
2017-12-28T19:22:38.527Z,2.10
2017-12-28T19:25:06.052Z,2.10
2017-12-28T19:27:33.608Z,2.20
2017-12-28T19:30:01.162Z,2.30
2017-12-28T19:32:28.721Z,2.30
2017-12-28T19:34:57.016Z,2.20
2017-12-28T19:37:24.599Z,2.20
2017-12-28T19:39:52.175Z,2.10
2017-12-28T19:42:19.859Z,2.10
2017-12-28T19:44:47.416Z,2.10
2017-12-28T19:47:15.851Z,2.30
2017-12-28T19:49:43.421Z,2.30
2017-12-28T19:52:10.957Z,2.40
2017-12-28T19:54:38.533Z,2.50
2017-12-28T19:57:06.051Z,2.40
2017-12-28T19:59:34.346Z,2.40
2017-12-28T20:02:02.639Z,2.40
2017-12-28T20:04:30.176Z,2.30
2017-12-28T20:06:57.747Z,2.30
2017-12-28T20:09:25.358Z,2.30
2017-12-28T20:11:52.917Z,2.20
2017-12-28T20:14:20.469Z,2.20
2017-12-28T20:16:48.040Z,2.00
2017-12-28T20:19:15.619Z,1.90
2017-12-28T20:21:43.931Z,2.10
2017-12-28T20:24:11.484Z,2.10
2017-12-28T20:26:39.025Z,2.20
2017-12-28T20:29:07.335Z,2.30
2017-12-28T20:31:34.880Z,2.30
2017-12-28T20:34:02.419Z,2.40
2017-12-28T20:36:30.756Z,2.30
2017-12-28T20:38:58.286Z,2.20
2017-12-28T20:41:25.878Z,2.20
2017-12-28T20:43:53.534Z,2.10
2017-12-28T20:46:21.193Z,2.10
2017-12-28T20:48:48.951Z,2.10
2017-12-28T20:51:16.797Z,2.00
2017-12-28T20:53:44.400Z,2.00
2017-12-28T20:56:11.931Z,2.10
2017-12-28T20:58:39.487Z,1.90
2017-12-28T21:01:07.029Z,1.60
2017-12-28T21:03:35.342Z,1.30
2017-12-28T21:06:02.873Z,1.30
2017-12-28T21:08:31.224Z,1.20
2017-12-28T21:10:58.768Z,1.20
2017-12-28T21:13:26.371Z,1.10
2017-12-28T21:15:54.053Z,1.20
2017-12-28T21:18:21.690Z,1.20
2017-12-28T21:20:50.368Z,1.10
2017-12-28T21:23:18.886Z,1.10
2017-12-28T21:25:46.751Z,1.00
2017-12-28T21:28:14.317Z,0.90
2017-12-28T21:30:41.864Z,1.00
2017-12-28T21:33:09.453Z,1.00
2017-12-28T21:35:36.982Z,0.90
2017-12-28T21:38:04.532Z,0.90
2017-12-28T21:40:32.053Z,0.90
2017-12-28T21:42:59.645Z,0.80
2017-12-28T21:45:27.264Z,0.80
2017-12-28T21:47:54.825Z,0.80
2017-12-28T21:50:22.420Z,0.80
2017-12-28T21:52:50.202Z,0.90
2017-12-28T21:55:17.881Z,1.00
2017-12-28T21:57:46.585Z,1.10
2017-12-28T22:00:14.136Z,1.10
2017-12-28T22:02:41.700Z,1.10
2017-12-28T22:05:09.229Z,1.10
2017-12-28T22:07:36.760Z,1.00
2017-12-28T22:10:04.277Z,0.90
2017-12-28T22:12:31.858Z,0.90
2017-12-28T22:14:59.488Z,1.00
2017-12-28T22:17:27.025Z,1.20
2017-12-28T22:19:55.337Z,1.50
2017-12-28T22:22:22.894Z,1.40
2017-12-28T22:24:50.446Z,1.40
2017-12-28T22:27:18.370Z,1.20
2017-12-28T22:29:46.765Z,1.10
2017-12-28T22:32:15.181Z,1.10
2017-12-28T22:34:42.786Z,1.10
2017-12-28T22:37:10.385Z,1.10
2017-12-28T22:39:37.909Z,1.10
2017-12-28T22:42:05.492Z,1.20
2017-12-28T22:44:33.052Z,1.20
2017-12-28T22:47:00.627Z,1.20
2017-12-28T22:49:28.284Z,1.20
2017-12-28T22:51:55.825Z,1.20
2017-12-28T22:54:23.460Z,1.30
2017-12-28T22:56:51.186Z,1.30
2017-12-28T22:59:19.007Z,1.30
2017-12-28T23:01:46.817Z,1.30
2017-12-28T23:04:15.508Z,1.20
2017-12-28T23:06:43.153Z,1.20
2017-12-28T23:09:11.156Z,1.20
2017-12-28T23:11:38.684Z,1.10
2017-12-28T23:14:06.212Z,1.10
2017-12-28T23:16:34.567Z,0.80
2017-12-28T23:19:02.082Z,0.80
2017-12-28T23:21:29.662Z,0.90
2017-12-28T23:23:57.296Z,0.90
2017-12-28T23:26:25.060Z,0.90
2017-12-28T23:28:52.630Z,1.00
2017-12-28T23:31:21.230Z,0.90
2017-12-28T23:33:49.159Z,0.80
2017-12-28T23:36:17.663Z,0.90
2017-12-28T23:38:45.268Z,0.80
2017-12-28T23:41:13.636Z,0.90
2017-12-28T23:43:41.287Z,0.90
2017-12-28T23:46:08.817Z,0.80
2017-12-28T23:48:36.805Z,0.90
2017-12-28T23:51:04.348Z,1.00
2017-12-28T23:53:31.877Z,0.70
2017-12-28T23:55:59.445Z,0.70
2017-12-28T23:58:27.758Z,0.70
